Disclaimer

Please do not use the information listed here in-flight or in-navigation, as they are not provided to us by the airports but are provided by volunteers, so they might be outdated.

Search


Regions


Airport information page

Radio informations:
Tower (TWR) - 118.7 MHz
Ground (GND) - 121.9 MHz
Approach (APP) - 126.0 MHz

Airport informations:
Latitude: 19° 58' 21.23" S
Longitude: 023° 25' 51.91" E
Elevation: 3093 feet - 943 meters
Operating hours: Remarks
Operating agency: Civil government, landing fees and diplomatic clearance may be required
Timezone: UTC+2
Fuel: Jet A1, without icing nhibitor.

100/130 MIL Spec, low lead, aviation gasoline (BLUE)

Runway information:
08/26 - 6562 x 98 feet< - >2000 x 30 meters

Recent METARs:
FBMN 131400Z 10009KT CAVOK 36/M03 Q1014
FBMN 131400Z 10009KT CAVOK 36/M03 Q1014
FBMN 131500Z 11010KT CAVOK 36/M03 Q1014

Airport on the map: